sensor_id;sensor_type;location;lat;lon;timestamp;P1;durP1;ratioP1;P2;durP2;ratioP2
10985;SDS011;5546;48.714;8.738;2023-06-26T00:00:49;11.97;;;6.37;;
10985;SDS011;5546;48.714;8.738;2023-06-26T00:03:15;7.70;;;6.50;;
10985;SDS011;5546;48.714;8.738;2023-06-26T00:05:41;7.17;;;6.40;;
10985;SDS011;5546;48.714;8.738;2023-06-26T00:08:07;7.77;;;6.97;;
10985;SDS011;5546;48.714;8.738;2023-06-26T00:10:34;7.00;;;6.03;;
10985;SDS011;5546;48.714;8.738;2023-06-26T00:12:59;6.80;;;6.20;;
10985;SDS011;5546;48.714;8.738;2023-06-26T00:15:25;7.90;;;6.83;;
10985;SDS011;5546;48.714;8.738;2023-06-26T00:17:56;8.70;;;6.97;;
10985;SDS011;5546;48.714;8.738;2023-06-26T00:20:22;8.43;;;6.70;;
10985;SDS011;5546;48.714;8.738;2023-06-26T00:22:48;7.27;;;6.57;;
10985;SDS011;5546;48.714;8.738;2023-06-26T00:25:15;8.03;;;6.77;;
10985;SDS011;5546;48.714;8.738;2023-06-26T00:27:41;7.60;;;6.60;;
10985;SDS011;5546;48.714;8.738;2023-06-26T00:30:07;6.90;;;6.20;;
10985;SDS011;5546;48.714;8.738;2023-06-26T00:32:33;8.67;;;6.90;;
10985;SDS011;5546;48.714;8.738;2023-06-26T00:34:59;6.80;;;6.10;;
10985;SDS011;5546;48.714;8.738;2023-06-26T00:37:24;8.00;;;6.77;;
10985;SDS011;5546;48.714;8.738;2023-06-26T00:39:50;8.77;;;6.37;;
10985;SDS011;5546;48.714;8.738;2023-06-26T00:42:16;6.83;;;6.17;;
10985;SDS011;5546;48.714;8.738;2023-06-26T00:44:42;7.10;;;6.40;;
10985;SDS011;5546;48.714;8.738;2023-06-26T00:47:08;9.60;;;7.03;;
10985;SDS011;5546;48.714;8.738;2023-06-26T00:49:36;7.47;;;6.73;;
10985;SDS011;5546;48.714;8.738;2023-06-26T00:52:02;8.87;;;6.70;;
10985;SDS011;5546;48.714;8.738;2023-06-26T00:54:28;8.47;;;6.67;;
10985;SDS011;5546;48.714;8.738;2023-06-26T00:56:54;7.13;;;6.17;;
10985;SDS011;5546;48.714;8.738;2023-06-26T00:59:20;7.23;;;6.50;;
10985;SDS011;5546;48.714;8.738;2023-06-26T01:01:46;7.80;;;6.90;;
10985;SDS011;5546;48.714;8.738;2023-06-26T01:04:13;7.77;;;6.97;;
10985;SDS011;5546;48.714;8.738;2023-06-26T01:06:43;7.70;;;6.90;;
10985;SDS011;5546;48.714;8.738;2023-06-26T01:09:13;7.87;;;6.97;;
10985;SDS011;5546;48.714;8.738;2023-06-26T01:11:48;7.00;;;6.30;;
10985;SDS011;5546;48.714;8.738;2023-06-26T01:14:14;7.43;;;6.73;;
10985;SDS011;5546;48.714;8.738;2023-06-26T01:16:40;8.20;;;6.40;;
10985;SDS011;5546;48.714;8.738;2023-06-26T01:19:19;7.80;;;6.73;;
10985;SDS011;5546;48.714;8.738;2023-06-26T01:21:51;9.20;;;6.83;;
10985;SDS011;5546;48.714;8.738;2023-06-26T01:24:22;7.77;;;7.00;;
10985;SDS011;5546;48.714;8.738;2023-06-26T01:26:52;7.53;;;6.70;;
10985;SDS011;5546;48.714;8.738;2023-06-26T01:29:18;6.80;;;6.10;;
10985;SDS011;5546;48.714;8.738;2023-06-26T01:31:46;9.43;;;6.83;;
10985;SDS011;5546;48.714;8.738;2023-06-26T01:34:15;7.43;;;6.60;;
10985;SDS011;5546;48.714;8.738;2023-06-26T01:36:41;8.70;;;6.80;;
10985;SDS011;5546;48.714;8.738;2023-06-26T01:39:07;6.77;;;6.10;;
10985;SDS011;5546;48.714;8.738;2023-06-26T01:41:33;7.83;;;6.60;;
10985;SDS011;5546;48.714;8.738;2023-06-26T01:51:47;7.97;;;6.50;;
10985;SDS011;5546;48.714;8.738;2023-06-26T01:54:21;8.23;;;6.90;;
10985;SDS011;5546;48.714;8.738;2023-06-26T01:56:51;7.00;;;6.30;;
10985;SDS011;5546;48.714;8.738;2023-06-26T01:59:18;8.00;;;7.20;;
10985;SDS011;5546;48.714;8.738;2023-06-26T02:01:46;7.80;;;6.87;;
10985;SDS011;5546;48.714;8.738;2023-06-26T02:04:12;7.73;;;6.50;;
10985;SDS011;5546;48.714;8.738;2023-06-26T02:06:38;7.30;;;6.53;;
10985;SDS011;5546;48.714;8.738;2023-06-26T02:09:04;7.20;;;6.40;;
10985;SDS011;5546;48.714;8.738;2023-06-26T02:11:30;7.67;;;6.70;;
10985;SDS011;5546;48.714;8.738;2023-06-26T02:13:56;7.87;;;6.73;;
10985;SDS011;5546;48.714;8.738;2023-06-26T02:16:21;7.30;;;6.60;;
10985;SDS011;5546;48.714;8.738;2023-06-26T02:18:48;6.60;;;6.00;;
10985;SDS011;5546;48.714;8.738;2023-06-26T02:21:13;8.63;;;6.90;;
10985;SDS011;5546;48.714;8.738;2023-06-26T02:23:39;8.47;;;6.90;;
10985;SDS011;5546;48.714;8.738;2023-06-26T02:26:05;7.83;;;6.77;;
10985;SDS011;5546;48.714;8.738;2023-06-26T02:28:30;8.27;;;6.97;;
10985;SDS011;5546;48.714;8.738;2023-06-26T02:30:56;9.97;;;7.27;;
10985;SDS011;5546;48.714;8.738;2023-06-26T02:33:22;8.90;;;6.60;;
10985;SDS011;5546;48.714;8.738;2023-06-26T02:35:48;7.73;;;6.37;;
10985;SDS011;5546;48.714;8.738;2023-06-26T02:38:15;8.43;;;7.53;;
10985;SDS011;5546;48.714;8.738;2023-06-26T02:40:41;8.40;;;7.00;;
10985;SDS011;5546;48.714;8.738;2023-06-26T02:43:07;7.97;;;6.70;;
10985;SDS011;5546;48.714;8.738;2023-06-26T02:45:33;7.60;;;6.80;;
10985;SDS011;5546;48.714;8.738;2023-06-26T02:47:58;7.50;;;6.77;;
10985;SDS011;5546;48.714;8.738;2023-06-26T02:50:24;10.43;;;7.23;;
10985;SDS011;5546;48.714;8.738;2023-06-26T02:52:50;7.67;;;6.87;;
10985;SDS011;5546;48.714;8.738;2023-06-26T02:55:17;7.67;;;6.83;;
10985;SDS011;5546;48.714;8.738;2023-06-26T02:57:44;7.37;;;6.67;;
10985;SDS011;5546;48.714;8.738;2023-06-26T03:00:10;7.90;;;6.60;;
10985;SDS011;5546;48.714;8.738;2023-06-26T03:02:36;7.90;;;7.10;;
10985;SDS011;5546;48.714;8.738;2023-06-26T03:05:02;7.90;;;7.10;;
10985;SDS011;5546;48.714;8.738;2023-06-26T03:07:29;7.53;;;6.57;;
10985;SDS011;5546;48.714;8.738;2023-06-26T03:09:54;8.50;;;7.40;;
10985;SDS011;5546;48.714;8.738;2023-06-26T03:12:20;7.80;;;6.97;;
10985;SDS011;5546;48.714;8.738;2023-06-26T03:14:46;8.00;;;7.20;;
10985;SDS011;5546;48.714;8.738;2023-06-26T03:17:12;7.83;;;7.03;;
10985;SDS011;5546;48.714;8.738;2023-06-26T03:19:38;7.80;;;7.00;;
10985;SDS011;5546;48.714;8.738;2023-06-26T03:22:04;8.03;;;6.63;;
10985;SDS011;5546;48.714;8.738;2023-06-26T03:24:30;8.07;;;6.90;;
10985;SDS011;5546;48.714;8.738;2023-06-26T03:26:56;8.67;;;7.17;;
10985;SDS011;5546;48.714;8.738;2023-06-26T03:29:22;7.37;;;6.60;;
10985;SDS011;5546;48.714;8.738;2023-06-26T03:31:50;9.20;;;7.03;;
10985;SDS011;5546;48.714;8.738;2023-06-26T03:34:16;7.60;;;6.80;;
10985;SDS011;5546;48.714;8.738;2023-06-26T03:36:42;9.17;;;7.80;;
10985;SDS011;5546;48.714;8.738;2023-06-26T03:39:08;8.17;;;7.37;;
10985;SDS011;5546;48.714;8.738;2023-06-26T03:41:33;8.63;;;7.13;;
10985;SDS011;5546;48.714;8.738;2023-06-26T03:43:59;7.53;;;6.73;;
10985;SDS011;5546;48.714;8.738;2023-06-26T03:46:26;8.50;;;7.10;;
10985;SDS011;5546;48.714;8.738;2023-06-26T03:48:51;8.50;;;7.60;;
10985;SDS011;5546;48.714;8.738;2023-06-26T03:51:17;10.90;;;7.37;;
10985;SDS011;5546;48.714;8.738;2023-06-26T03:53:43;8.63;;;7.03;;
10985;SDS011;5546;48.714;8.738;2023-06-26T03:56:08;8.77;;;7.03;;
10985;SDS011;5546;48.714;8.738;2023-06-26T03:58:34;7.30;;;6.60;;
10985;SDS011;5546;48.714;8.738;2023-06-26T04:01:00;8.60;;;7.40;;
10985;SDS011;5546;48.714;8.738;2023-06-26T04:03:26;9.07;;;7.40;;
10985;SDS011;5546;48.714;8.738;2023-06-26T04:05:52;10.77;;;7.77;;
10985;SDS011;5546;48.714;8.738;2023-06-26T04:08:18;9.10;;;7.57;;
10985;SDS011;5546;48.714;8.738;2023-06-26T04:10:45;8.67;;;7.77;;
10985;SDS011;5546;48.714;8.738;2023-06-26T04:13:14;7.87;;;7.07;;
10985;SDS011;5546;48.714;8.738;2023-06-26T04:15:39;7.83;;;7.13;;
10985;SDS011;5546;48.714;8.738;2023-06-26T04:18:05;7.93;;;7.13;;
10985;SDS011;5546;48.714;8.738;2023-06-26T04:20:39;8.47;;;7.50;;
10985;SDS011;5546;48.714;8.738;2023-06-26T04:23:26;8.50;;;7.23;;
10985;SDS011;5546;48.714;8.738;2023-06-26T04:25:52;9.10;;;7.10;;
10985;SDS011;5546;48.714;8.738;2023-06-26T04:28:17;9.03;;;7.03;;
10985;SDS011;5546;48.714;8.738;2023-06-26T04:30:43;8.27;;;7.47;;
10985;SDS011;5546;48.714;8.738;2023-06-26T04:33:09;8.40;;;7.53;;
10985;SDS011;5546;48.714;8.738;2023-06-26T04:35:36;7.63;;;6.90;;
10985;SDS011;5546;48.714;8.738;2023-06-26T04:38:02;8.67;;;7.50;;
10985;SDS011;5546;48.714;8.738;2023-06-26T04:40:28;8.10;;;7.30;;
10985;SDS011;5546;48.714;8.738;2023-06-26T04:42:54;8.60;;;7.20;;
10985;SDS011;5546;48.714;8.738;2023-06-26T04:45:20;8.40;;;7.57;;
10985;SDS011;5546;48.714;8.738;2023-06-26T04:47:45;10.27;;;7.67;;
10985;SDS011;5546;48.714;8.738;2023-06-26T04:50:11;7.70;;;6.90;;
10985;SDS011;5546;48.714;8.738;2023-06-26T04:52:36;7.83;;;7.00;;
10985;SDS011;5546;48.714;8.738;2023-06-26T04:55:02;8.93;;;7.23;;
10985;SDS011;5546;48.714;8.738;2023-06-26T04:57:28;8.73;;;7.27;;
10985;SDS011;5546;48.714;8.738;2023-06-26T04:59:54;9.00;;;8.10;;
10985;SDS011;5546;48.714;8.738;2023-06-26T05:02:20;8.53;;;7.03;;
10985;SDS011;5546;48.714;8.738;2023-06-26T05:04:46;8.50;;;7.27;;
10985;SDS011;5546;48.714;8.738;2023-06-26T05:07:13;9.53;;;7.20;;
10985;SDS011;5546;48.714;8.738;2023-06-26T05:09:39;8.97;;;8.07;;
10985;SDS011;5546;48.714;8.738;2023-06-26T05:12:04;10.03;;;6.93;;
10985;SDS011;5546;48.714;8.738;2023-06-26T05:14:30;7.53;;;6.40;;
10985;SDS011;5546;48.714;8.738;2023-06-26T05:16:56;9.63;;;7.00;;
10985;SDS011;5546;48.714;8.738;2023-06-26T05:19:22;8.87;;;7.00;;
10985;SDS011;5546;48.714;8.738;2023-06-26T05:21:48;8.40;;;7.57;;
10985;SDS011;5546;48.714;8.738;2023-06-26T05:24:15;8.23;;;7.32;;
10985;SDS011;5546;48.714;8.738;2023-06-26T05:26:41;8.80;;;7.70;;
10985;SDS011;5546;48.714;8.738;2023-06-26T05:29:07;8.37;;;6.87;;
10985;SDS011;5546;48.714;8.738;2023-06-26T05:31:33;8.05;;;7.18;;
10985;SDS011;5546;48.714;8.738;2023-06-26T05:34:04;8.57;;;7.53;;
10985;SDS011;5546;48.714;8.738;2023-06-26T05:36:32;7.95;;;7.15;;
10985;SDS011;5546;48.714;8.738;2023-06-26T05:39:02;9.60;;;6.65;;
10985;SDS011;5546;48.714;8.738;2023-06-26T05:41:28;8.50;;;6.55;;
10985;SDS011;5546;48.714;8.738;2023-06-26T05:43:54;9.95;;;6.57;;
10985;SDS011;5546;48.714;8.738;2023-06-26T05:46:20;7.40;;;6.65;;
10985;SDS011;5546;48.714;8.738;2023-06-26T05:48:46;11.38;;;7.15;;
10985;SDS011;5546;48.714;8.738;2023-06-26T05:51:12;8.98;;;7.15;;
10985;SDS011;5546;48.714;8.738;2023-06-26T05:53:38;7.97;;;6.95;;
10985;SDS011;5546;48.714;8.738;2023-06-26T05:56:04;7.63;;;6.82;;
10985;SDS011;5546;48.714;8.738;2023-06-26T05:58:30;8.30;;;6.70;;
10985;SDS011;5546;48.714;8.738;2023-06-26T06:00:56;9.38;;;7.68;;
10985;SDS011;5546;48.714;8.738;2023-06-26T06:03:21;7.40;;;6.22;;
10985;SDS011;5546;48.714;8.738;2023-06-26T06:05:48;6.68;;;6.07;;
10985;SDS011;5546;48.714;8.738;2023-06-26T06:08:13;8.57;;;6.47;;
10985;SDS011;5546;48.714;8.738;2023-06-26T06:10:39;7.88;;;7.13;;
10985;SDS011;5546;48.714;8.738;2023-06-26T06:13:05;7.75;;;6.60;;
10985;SDS011;5546;48.714;8.738;2023-06-26T06:15:30;6.75;;;6.10;;
10985;SDS011;5546;48.714;8.738;2023-06-26T06:17:56;7.40;;;6.60;;
10985;SDS011;5546;48.714;8.738;2023-06-26T06:20:21;7.72;;;6.97;;
10985;SDS011;5546;48.714;8.738;2023-06-26T06:22:47;7.93;;;7.13;;
10985;SDS011;5546;48.714;8.738;2023-06-26T06:25:13;7.43;;;6.72;;
10985;SDS011;5546;48.714;8.738;2023-06-26T06:27:39;7.63;;;6.85;;
10985;SDS011;5546;48.714;8.738;2023-06-26T06:30:05;7.43;;;6.72;;
10985;SDS011;5546;48.714;8.738;2023-06-26T06:32:31;8.05;;;7.25;;
10985;SDS011;5546;48.714;8.738;2023-06-26T06:34:59;8.02;;;7.32;;
10985;SDS011;5546;48.714;8.738;2023-06-26T06:37:28;7.80;;;7.00;;
10985;SDS011;5546;48.714;8.738;2023-06-26T06:39:56;8.25;;;7.15;;
10985;SDS011;5546;48.714;8.738;2023-06-26T06:42:23;10.02;;;7.15;;
10985;SDS011;5546;48.714;8.738;2023-06-26T06:44:48;7.75;;;7.05;;
10985;SDS011;5546;48.714;8.738;2023-06-26T06:47:14;7.78;;;6.93;;
10985;SDS011;5546;48.714;8.738;2023-06-26T06:49:39;7.72;;;6.95;;
10985;SDS011;5546;48.714;8.738;2023-06-26T06:52:05;7.60;;;6.50;;
10985;SDS011;5546;48.714;8.738;2023-06-26T06:54:31;7.80;;;7.10;;
10985;SDS011;5546;48.714;8.738;2023-06-26T06:56:56;7.53;;;6.82;;
10985;SDS011;5546;48.714;8.738;2023-06-26T06:59:22;8.60;;;6.75;;
10985;SDS011;5546;48.714;8.738;2023-06-26T07:01:47;7.50;;;6.63;;
10985;SDS011;5546;48.714;8.738;2023-06-26T07:04:13;7.78;;;7.07;;
10985;SDS011;5546;48.714;8.738;2023-06-26T07:06:38;7.07;;;6.47;;
10985;SDS011;5546;48.714;8.738;2023-06-26T07:09:04;8.15;;;6.35;;
10985;SDS011;5546;48.714;8.738;2023-06-26T07:11:30;8.25;;;6.50;;
10985;SDS011;5546;48.714;8.738;2023-06-26T07:13:56;7.82;;;6.97;;
10985;SDS011;5546;48.714;8.738;2023-06-26T07:16:21;7.47;;;6.80;;
10985;SDS011;5546;48.714;8.738;2023-06-26T07:18:47;7.38;;;6.20;;
10985;SDS011;5546;48.714;8.738;2023-06-26T07:21:14;7.47;;;6.72;;
10985;SDS011;5546;48.714;8.738;2023-06-26T07:23:40;6.13;;;5.63;;
10985;SDS011;5546;48.714;8.738;2023-06-26T07:26:05;6.03;;;5.53;;
10985;SDS011;5546;48.714;8.738;2023-06-26T07:28:31;8.05;;;5.60;;
10985;SDS011;5546;48.714;8.738;2023-06-26T07:30:56;8.00;;;5.70;;
10985;SDS011;5546;48.714;8.738;2023-06-26T07:33:22;8.15;;;5.75;;
10985;SDS011;5546;48.714;8.738;2023-06-26T07:35:47;6.22;;;5.38;;
10985;SDS011;5546;48.714;8.738;2023-06-26T07:38:13;5.85;;;5.35;;
10985;SDS011;5546;48.714;8.738;2023-06-26T07:40:38;5.25;;;4.82;;
10985;SDS011;5546;48.714;8.738;2023-06-26T07:43:03;5.30;;;4.80;;
10985;SDS011;5546;48.714;8.738;2023-06-26T07:45:29;5.60;;;4.63;;
10985;SDS011;5546;48.714;8.738;2023-06-26T07:47:54;4.85;;;4.40;;
10985;SDS011;5546;48.714;8.738;2023-06-26T07:50:20;5.10;;;4.70;;
10985;SDS011;5546;48.714;8.738;2023-06-26T07:52:47;5.10;;;4.57;;
10985;SDS011;5546;48.714;8.738;2023-06-26T07:55:13;6.47;;;4.82;;
10985;SDS011;5546;48.714;8.738;2023-06-26T07:57:39;5.03;;;4.53;;
10985;SDS011;5546;48.714;8.738;2023-06-26T08:00:04;5.32;;;4.93;;
10985;SDS011;5546;48.714;8.738;2023-06-26T08:02:39;6.38;;;4.70;;
10985;SDS011;5546;48.714;8.738;2023-06-26T08:05:04;5.30;;;4.80;;
10985;SDS011;5546;48.714;8.738;2023-06-26T08:07:30;5.10;;;4.65;;
10985;SDS011;5546;48.714;8.738;2023-06-26T08:09:56;5.15;;;4.65;;
10985;SDS011;5546;48.714;8.738;2023-06-26T08:12:22;5.18;;;4.65;;
10985;SDS011;5546;48.714;8.738;2023-06-26T08:14:48;5.95;;;4.35;;
10985;SDS011;5546;48.714;8.738;2023-06-26T08:17:14;5.05;;;4.55;;
10985;SDS011;5546;48.714;8.738;2023-06-26T08:19:39;5.53;;;5.00;;
10985;SDS011;5546;48.714;8.738;2023-06-26T08:22:05;6.90;;;4.57;;
10985;SDS011;5546;48.714;8.738;2023-06-26T08:24:31;5.38;;;4.88;;
10985;SDS011;5546;48.714;8.738;2023-06-26T08:26:56;5.38;;;4.90;;
10985;SDS011;5546;48.714;8.738;2023-06-26T08:29:23;5.85;;;4.85;;
10985;SDS011;5546;48.714;8.738;2023-06-26T08:31:48;5.60;;;5.10;;
10985;SDS011;5546;48.714;8.738;2023-06-26T08:34:14;5.30;;;4.90;;
10985;SDS011;5546;48.714;8.738;2023-06-26T08:36:39;5.18;;;4.78;;
10985;SDS011;5546;48.714;8.738;2023-06-26T08:39:05;5.43;;;4.95;;
10985;SDS011;5546;48.714;8.738;2023-06-26T08:41:30;5.60;;;5.10;;
10985;SDS011;5546;48.714;8.738;2023-06-26T08:43:56;5.65;;;5.00;;
10985;SDS011;5546;48.714;8.738;2023-06-26T08:46:22;5.47;;;5.05;;
10985;SDS011;5546;48.714;8.738;2023-06-26T08:48:48;5.45;;;4.93;;
10985;SDS011;5546;48.714;8.738;2023-06-26T08:51:19;5.55;;;5.05;;
10985;SDS011;5546;48.714;8.738;2023-06-26T08:56:24;5.15;;;4.75;;
10985;SDS011;5546;48.714;8.738;2023-06-26T08:58:51;6.35;;;5.75;;
10985;SDS011;5546;48.714;8.738;2023-06-26T09:01:17;5.82;;;5.40;;
10985;SDS011;5546;48.714;8.738;2023-06-26T09:03:43;6.07;;;5.57;;
10985;SDS011;5546;48.714;8.738;2023-06-26T09:06:09;5.25;;;4.85;;
10985;SDS011;5546;48.714;8.738;2023-06-26T09:08:35;5.30;;;4.90;;
10985;SDS011;5546;48.714;8.738;2023-06-26T09:11:01;6.20;;;5.70;;
10985;SDS011;5546;48.714;8.738;2023-06-26T09:13:28;5.22;;;4.82;;
10985;SDS011;5546;48.714;8.738;2023-06-26T09:15:54;5.18;;;4.78;;
10985;SDS011;5546;48.714;8.738;2023-06-26T09:18:21;5.57;;;5.07;;
10985;SDS011;5546;48.714;8.738;2023-06-26T09:20:47;5.47;;;5.07;;
10985;SDS011;5546;48.714;8.738;2023-06-26T09:23:13;5.68;;;5.13;;
10985;SDS011;5546;48.714;8.738;2023-06-26T09:25:39;5.55;;;5.15;;
10985;SDS011;5546;48.714;8.738;2023-06-26T09:28:05;5.72;;;5.22;;
10985;SDS011;5546;48.714;8.738;2023-06-26T09:30:34;5.80;;;5.20;;
10985;SDS011;5546;48.714;8.738;2023-06-26T09:33:13;5.70;;;5.03;;
10985;SDS011;5546;48.714;8.738;2023-06-26T09:35:39;5.32;;;4.90;;
10985;SDS011;5546;48.714;8.738;2023-06-26T09:38:05;6.53;;;5.60;;
10985;SDS011;5546;48.714;8.738;2023-06-26T09:40:30;6.78;;;5.30;;
10985;SDS011;5546;48.714;8.738;2023-06-26T09:43:02;6.53;;;5.80;;
10985;SDS011;5546;48.714;8.738;2023-06-26T09:45:32;6.90;;;6.20;;
10985;SDS011;5546;48.714;8.738;2023-06-26T09:48:00;7.80;;;5.50;;
10985;SDS011;5546;48.714;8.738;2023-06-26T09:50:27;7.97;;;6.15;;
10985;SDS011;5546;48.714;8.738;2023-06-26T09:52:53;7.10;;;6.03;;
10985;SDS011;5546;48.714;8.738;2023-06-26T09:55:19;7.68;;;6.38;;
10985;SDS011;5546;48.714;8.738;2023-06-26T09:57:51;7.00;;;6.30;;
10985;SDS011;5546;48.714;8.738;2023-06-26T10:00:20;6.72;;;6.03;;
10985;SDS011;5546;48.714;8.738;2023-06-26T10:02:46;6.65;;;6.05;;
10985;SDS011;5546;48.714;8.738;2023-06-26T10:05:12;6.63;;;5.93;;
10985;SDS011;5546;48.714;8.738;2023-06-26T10:07:38;6.45;;;5.43;;
10985;SDS011;5546;48.714;8.738;2023-06-26T10:10:05;6.88;;;6.20;;
10985;SDS011;5546;48.714;8.738;2023-06-26T10:12:32;7.28;;;6.47;;
10985;SDS011;5546;48.714;8.738;2023-06-26T10:14:58;10.10;;;6.95;;
10985;SDS011;5546;48.714;8.738;2023-06-26T10:17:27;6.53;;;5.85;;
10985;SDS011;5546;48.714;8.738;2023-06-26T10:19:55;6.55;;;6.05;;
10985;SDS011;5546;48.714;8.738;2023-06-26T10:22:24;7.40;;;6.80;;
10985;SDS011;5546;48.714;8.738;2023-06-26T10:24:54;8.38;;;6.40;;
10985;SDS011;5546;48.714;8.738;2023-06-26T10:27:24;6.28;;;5.78;;
10985;SDS011;5546;48.714;8.738;2023-06-26T10:29:53;6.78;;;6.18;;
10985;SDS011;5546;48.714;8.738;2023-06-26T10:32:22;6.47;;;5.88;;
10985;SDS011;5546;48.714;8.738;2023-06-26T10:34:50;8.27;;;7.40;;
10985;SDS011;5546;48.714;8.738;2023-06-26T10:37:16;7.22;;;6.10;;
10985;SDS011;5546;48.714;8.738;2023-06-26T10:39:45;7.53;;;6.82;;
10985;SDS011;5546;48.714;8.738;2023-06-26T10:42:16;7.97;;;5.78;;
10985;SDS011;5546;48.714;8.738;2023-06-26T10:44:43;8.18;;;6.65;;
10985;SDS011;5546;48.714;8.738;2023-06-26T10:47:10;7.20;;;6.50;;
10985;SDS011;5546;48.714;8.738;2023-06-26T10:49:37;7.45;;;6.35;;
10985;SDS011;5546;48.714;8.738;2023-06-26T10:52:07;6.93;;;6.15;;
10985;SDS011;5546;48.714;8.738;2023-06-26T10:54:33;8.30;;;6.57;;
10985;SDS011;5546;48.714;8.738;2023-06-26T10:56:59;7.90;;;5.70;;
10985;SDS011;5546;48.714;8.738;2023-06-26T10:59:26;6.85;;;6.20;;
10985;SDS011;5546;48.714;8.738;2023-06-26T11:02:00;7.07;;;5.88;;
10985;SDS011;5546;48.714;8.738;2023-06-26T11:07:21;6.85;;;5.70;;
10985;SDS011;5546;48.714;8.738;2023-06-26T11:10:00;6.10;;;5.60;;
10985;SDS011;5546;48.714;8.738;2023-06-26T11:12:34;7.05;;;5.60;;
10985;SDS011;5546;48.714;8.738;2023-06-26T11:15:01;6.18;;;5.68;;
10985;SDS011;5546;48.714;8.738;2023-06-26T11:17:28;7.50;;;6.35;;
10985;SDS011;5546;48.714;8.738;2023-06-26T11:19:54;7.40;;;6.10;;
10985;SDS011;5546;48.714;8.738;2023-06-26T11:22:20;6.80;;;6.22;;
10985;SDS011;5546;48.714;8.738;2023-06-26T11:24:47;11.35;;;6.10;;
10985;SDS011;5546;48.714;8.738;2023-06-26T11:27:14;6.68;;;6.07;;
10985;SDS011;5546;48.714;8.738;2023-06-26T11:29:46;6.18;;;5.65;;
10985;SDS011;5546;48.714;8.738;2023-06-26T11:32:12;8.98;;;5.88;;
10985;SDS011;5546;48.714;8.738;2023-06-26T11:34:38;6.13;;;5.63;;
10985;SDS011;5546;48.714;8.738;2023-06-26T11:37:04;6.10;;;5.50;;
10985;SDS011;5546;48.714;8.738;2023-06-26T11:39:30;9.27;;;6.40;;
10985;SDS011;5546;48.714;8.738;2023-06-26T11:41:56;10.50;;;5.88;;
10985;SDS011;5546;48.714;8.738;2023-06-26T11:44:22;6.65;;;5.90;;
10985;SDS011;5546;48.714;8.738;2023-06-26T11:46:50;8.05;;;5.55;;
10985;SDS011;5546;48.714;8.738;2023-06-26T11:49:16;6.70;;;6.05;;
10985;SDS011;5546;48.714;8.738;2023-06-26T11:51:42;7.57;;;6.28;;
10985;SDS011;5546;48.714;8.738;2023-06-26T11:54:08;7.30;;;5.88;;
10985;SDS011;5546;48.714;8.738;2023-06-26T11:56:33;7.40;;;5.85;;
10985;SDS011;5546;48.714;8.738;2023-06-26T11:59:00;5.80;;;5.20;;
10985;SDS011;5546;48.714;8.738;2023-06-26T12:04:00;6.88;;;6.20;;
10985;SDS011;5546;48.714;8.738;2023-06-26T12:06:31;8.65;;;6.32;;
10985;SDS011;5546;48.714;8.738;2023-06-26T12:08:58;6.10;;;5.53;;
10985;SDS011;5546;48.714;8.738;2023-06-26T12:11:25;6.38;;;5.78;;
10985;SDS011;5546;48.714;8.738;2023-06-26T12:13:52;8.38;;;5.80;;
10985;SDS011;5546;48.714;8.738;2023-06-26T12:16:18;7.22;;;6.00;;
10985;SDS011;5546;48.714;8.738;2023-06-26T12:18:44;7.35;;;6.57;;
10985;SDS011;5546;48.714;8.738;2023-06-26T12:21:27;6.97;;;5.57;;
10985;SDS011;5546;48.714;8.738;2023-06-26T12:24:15;6.40;;;5.80;;
10985;SDS011;5546;48.714;8.738;2023-06-26T12:26:43;6.03;;;5.45;;
10985;SDS011;5546;48.714;8.738;2023-06-26T12:29:10;6.70;;;5.60;;
10985;SDS011;5546;48.714;8.738;2023-06-26T12:32:00;5.90;;;5.40;;
10985;SDS011;5546;48.714;8.738;2023-06-26T12:34:27;7.35;;;5.32;;
10985;SDS011;5546;48.714;8.738;2023-06-26T12:37:00;6.20;;;5.40;;
10985;SDS011;5546;48.714;8.738;2023-06-26T12:39:27;6.05;;;5.30;;
10985;SDS011;5546;48.714;8.738;2023-06-26T12:41:53;7.75;;;5.30;;
10985;SDS011;5546;48.714;8.738;2023-06-26T12:44:25;8.00;;;5.10;;
10985;SDS011;5546;48.714;8.738;2023-06-26T12:46:55;6.65;;;5.55;;
10985;SDS011;5546;48.714;8.738;2023-06-26T12:49:37;6.05;;;5.22;;
10985;SDS011;5546;48.714;8.738;2023-06-26T12:52:07;5.20;;;4.70;;
10985;SDS011;5546;48.714;8.738;2023-06-26T12:54:35;5.70;;;5.05;;
10985;SDS011;5546;48.714;8.738;2023-06-26T12:57:01;5.28;;;4.78;;
10985;SDS011;5546;48.714;8.738;2023-06-26T12:59:28;5.90;;;5.22;;
10985;SDS011;5546;48.714;8.738;2023-06-26T13:01:55;6.10;;;5.47;;
10985;SDS011;5546;48.714;8.738;2023-06-26T13:04:20;5.20;;;4.70;;
10985;SDS011;5546;48.714;8.738;2023-06-26T13:06:46;5.65;;;5.05;;
10985;SDS011;5546;48.714;8.738;2023-06-26T13:09:11;7.18;;;5.13;;
10985;SDS011;5546;48.714;8.738;2023-06-26T13:11:37;5.63;;;4.63;;
10985;SDS011;5546;48.714;8.738;2023-06-26T13:14:03;8.70;;;5.18;;
10985;SDS011;5546;48.714;8.738;2023-06-26T13:16:29;7.82;;;5.22;;
10985;SDS011;5546;48.714;8.738;2023-06-26T13:18:54;4.97;;;4.57;;
10985;SDS011;5546;48.714;8.738;2023-06-26T13:21:21;5.57;;;5.10;;
10985;SDS011;5546;48.714;8.738;2023-06-26T13:23:46;8.93;;;5.45;;
10985;SDS011;5546;48.714;8.738;2023-06-26T13:26:12;5.60;;;5.10;;
10985;SDS011;5546;48.714;8.738;2023-06-26T13:28:37;5.25;;;4.47;;
10985;SDS011;5546;48.714;8.738;2023-06-26T13:31:03;5.63;;;4.50;;
10985;SDS011;5546;48.714;8.738;2023-06-26T13:33:29;6.57;;;4.85;;
10985;SDS011;5546;48.714;8.738;2023-06-26T13:35:56;4.72;;;4.32;;
10985;SDS011;5546;48.714;8.738;2023-06-26T13:38:21;5.30;;;4.80;;
10985;SDS011;5546;48.714;8.738;2023-06-26T13:40:50;4.30;;;3.85;;
10985;SDS011;5546;48.714;8.738;2023-06-26T13:43:16;4.72;;;4.30;;
10985;SDS011;5546;48.714;8.738;2023-06-26T13:45:42;5.20;;;4.70;;
10985;SDS011;5546;48.714;8.738;2023-06-26T13:48:07;4.85;;;4.28;;
10985;SDS011;5546;48.714;8.738;2023-06-26T13:50:33;4.55;;;4.00;;
10985;SDS011;5546;48.714;8.738;2023-06-26T13:52:58;5.20;;;4.70;;
10985;SDS011;5546;48.714;8.738;2023-06-26T13:55:24;4.28;;;3.88;;
10985;SDS011;5546;48.714;8.738;2023-06-26T13:57:50;6.82;;;4.28;;
10985;SDS011;5546;48.714;8.738;2023-06-26T14:00:15;6.97;;;4.50;;
10985;SDS011;5546;48.714;8.738;2023-06-26T14:02:45;6.25;;;3.60;;
10985;SDS011;5546;48.714;8.738;2023-06-26T14:05:11;4.60;;;3.60;;
10985;SDS011;5546;48.714;8.738;2023-06-26T14:07:37;4.55;;;4.05;;
10985;SDS011;5546;48.714;8.738;2023-06-26T14:10:03;4.38;;;3.97;;
10985;SDS011;5546;48.714;8.738;2023-06-26T14:12:30;5.80;;;4.03;;
10985;SDS011;5546;48.714;8.738;2023-06-26T14:14:57;4.93;;;3.95;;
10985;SDS011;5546;48.714;8.738;2023-06-26T14:17:22;4.53;;;3.72;;
10985;SDS011;5546;48.714;8.738;2023-06-26T14:19:51;5.93;;;3.70;;
10985;SDS011;5546;48.714;8.738;2023-06-26T14:22:19;5.70;;;3.70;;
10985;SDS011;5546;48.714;8.738;2023-06-26T14:24:45;8.98;;;4.57;;
10985;SDS011;5546;48.714;8.738;2023-06-26T14:27:11;7.20;;;4.00;;
10985;SDS011;5546;48.714;8.738;2023-06-26T14:29:37;4.38;;;3.92;;
10985;SDS011;5546;48.714;8.738;2023-06-26T14:32:03;5.78;;;3.83;;
10985;SDS011;5546;48.714;8.738;2023-06-26T14:34:29;4.22;;;3.78;;
10985;SDS011;5546;48.714;8.738;2023-06-26T14:36:54;5.05;;;4.55;;
10985;SDS011;5546;48.714;8.738;2023-06-26T14:39:20;7.30;;;4.78;;
10985;SDS011;5546;48.714;8.738;2023-06-26T14:41:46;4.53;;;4.07;;
10985;SDS011;5546;48.714;8.738;2023-06-26T14:44:13;6.05;;;4.38;;
10985;SDS011;5546;48.714;8.738;2023-06-26T14:46:39;5.35;;;4.22;;
10985;SDS011;5546;48.714;8.738;2023-06-26T14:49:04;7.32;;;4.55;;
10985;SDS011;5546;48.714;8.738;2023-06-26T14:51:30;7.60;;;4.65;;
10985;SDS011;5546;48.714;8.738;2023-06-26T14:53:56;8.23;;;4.30;;
10985;SDS011;5546;48.714;8.738;2023-06-26T14:56:22;5.45;;;4.57;;
10985;SDS011;5546;48.714;8.738;2023-06-26T14:58:49;7.03;;;4.25;;
10985;SDS011;5546;48.714;8.738;2023-06-26T15:01:22;10.43;;;4.88;;
10985;SDS011;5546;48.714;8.738;2023-06-26T15:03:47;5.43;;;4.93;;
10985;SDS011;5546;48.714;8.738;2023-06-26T15:06:13;6.68;;;4.53;;
10985;SDS011;5546;48.714;8.738;2023-06-26T15:08:39;6.18;;;5.25;;
10985;SDS011;5546;48.714;8.738;2023-06-26T15:11:05;6.93;;;5.07;;
10985;SDS011;5546;48.714;8.738;2023-06-26T15:13:31;5.60;;;5.10;;